Time;durP1;ratioP1;P1;durP2;ratioP2;P2;SDS_P1;SDS_P2;PMS_P1;PMS_P2;Temp;Humidity;BMP_temperature;BMP_pressure;BME280_temperature;BME280_humidity;BME280_pressure;Samples;Min_cycle;Max_cycle;Signal;HPM_P1;HPM_P2
2022/10/31 00:01:25;;;;;;;12.70;2.53;;;;;;;;;;4997965;28;21158;-66
2022/10/31 00:03:51;;;;;;;11.82;2.40;;;;;;;;;;4998946;28;21216;-66
2022/10/31 00:06:18;;;;;;;13.85;2.47;;;;;;;;;;4998210;28;20053;-66
2022/10/31 00:08:45;;;;;;;11.10;2.80;;;;;;;;;;4998352;28;20033;-67
2022/10/31 00:11:11;;;;;;;13.70;2.10;;;;;;;;;;4997689;28;20034;-67
2022/10/31 00:13:38;;;;;;;13.75;2.30;;;;;;;;;;5012713;28;20091;-66
2022/10/31 00:16:04;;;;;;;12.35;2.70;;;;;;;;;;4999409;28;20048;-66
2022/10/31 00:18:29;;;;;;;11.30;2.30;;;;;;;;;;4995949;28;20036;-66
2022/10/31 00:20:58;;;;;;;11.35;2.30;;;;;;;;;;4996844;28;20037;-66
2022/10/31 00:23:23;;;;;;;12.88;2.33;;;;;;;;;;4997303;28;20064;-69
2022/10/31 00:25:49;;;;;;;14.65;4.10;;;;;;;;;;5000121;28;20033;-70
2022/10/31 00:28:14;;;;;;;17.05;6.35;;;;;;;;;;4999470;28;20132;-70
2022/10/31 00:30:40;;;;;;;21.13;6.72;;;;;;;;;;4996867;28;20136;-70
2022/10/31 00:33:05;;;;;;;20.10;5.70;;;;;;;;;;4999071;28;20029;-70
2022/10/31 00:35:30;;;;;;;25.45;7.63;;;;;;;;;;4997219;28;20148;-70
2022/10/31 00:37:56;;;;;;;20.88;9.35;;;;;;;;;;4998517;28;20049;-70
2022/10/31 00:40:23;;;;;;;20.65;7.72;;;;;;;;;;4997952;28;20029;-70
2022/10/31 00:42:48;;;;;;;26.42;10.82;;;;;;;;;;5002426;28;20075;-70
2022/10/31 00:45:13;;;;;;;22.75;9.90;;;;;;;;;;4997352;28;20021;-70
2022/10/31 00:47:39;;;;;;;23.33;8.63;;;;;;;;;;5000193;28;20029;-70
2022/10/31 00:50:07;;;;;;;23.38;9.00;;;;;;;;;;4998758;28;20729;-69
2022/10/31 00:52:35;;;;;;;17.77;6.70;;;;;;;;;;4996809;28;22805;-69
2022/10/31 00:55:01;;;;;;;19.42;7.35;;;;;;;;;;4995625;28;20778;-71
2022/10/31 00:57:26;;;;;;;18.45;7.60;;;;;;;;;;4996581;28;20056;-70
2022/10/31 00:59:52;;;;;;;16.00;6.32;;;;;;;;;;4998681;28;20047;-69
2022/10/31 01:02:17;;;;;;;14.30;6.85;;;;;;;;;;4996121;28;20757;-70
2022/10/31 01:04:42;;;;;;;15.90;8.18;;;;;;;;;;4996002;28;20037;-69
2022/10/31 01:07:08;;;;;;;15.90;6.93;;;;;;;;;;4998111;28;20029;-69
2022/10/31 01:09:34;;;;;;;12.90;5.30;;;;;;;;;;5004351;28;20037;-70
2022/10/31 01:11:59;;;;;;;17.15;6.68;;;;;;;;;;5000984;28;20081;-68
2022/10/31 01:14:25;;;;;;;17.02;6.20;;;;;;;;;;4983380;28;20120;-69
2022/10/31 01:16:50;;;;;;;11.38;5.25;;;;;;;;;;5005692;28;22728;-70
2022/10/31 01:19:15;;;;;;;11.27;5.85;;;;;;;;;;5000899;28;20977;-69
2022/10/31 01:21:40;;;;;;;15.25;7.18;;;;;;;;;;5001662;28;20214;-71
2022/10/31 01:24:06;;;;;;;15.15;9.82;;;;;;;;;;5001825;28;20041;-70
2022/10/31 01:26:33;;;;;;;22.08;8.55;;;;;;;;;;5003696;28;20826;-70
2022/10/31 01:29:01;;;;;;;20.27;10.35;;;;;;;;;;5002909;28;20061;-70
2022/10/31 01:31:28;;;;;;;18.65;13.00;;;;;;;;;;4999065;28;20113;-70
2022/10/31 01:33:53;;;;;;;18.98;10.75;;;;;;;;;;5016935;28;20079;-70
2022/10/31 01:36:27;;;;;;;26.17;16.73;;;;;;;;;;4999912;28;21102;-70
2022/10/31 01:38:53;;;;;;;25.58;14.57;;;;;;;;;;5000279;28;20109;-70
2022/10/31 01:41:21;;;;;;;25.05;11.70;;;;;;;;;;5000446;28;20044;-70
2022/10/31 01:43:46;;;;;;;20.20;8.63;;;;;;;;;;5001192;28;20052;-69
2022/10/31 01:46:12;;;;;;;20.15;9.13;;;;;;;;;;5002092;28;20053;-69
2022/10/31 01:48:40;;;;;;;23.58;11.30;;;;;;;;;;5000247;28;20041;-69
2022/10/31 01:51:09;;;;;;;23.75;10.70;;;;;;;;;;4999433;28;20912;-69
2022/10/31 01:53:35;;;;;;;18.60;11.43;;;;;;;;;;5001028;28;20063;-70
2022/10/31 01:56:01;;;;;;;31.85;17.48;;;;;;;;;;5015819;28;20721;-70
2022/10/31 01:58:28;;;;;;;29.83;17.17;;;;;;;;;;5002812;28;20036;-70
2022/10/31 02:00:55;;;;;;;21.88;12.55;;;;;;;;;;5000273;28;20090;-69
2022/10/31 02:03:21;;;;;;;14.25;7.63;;;;;;;;;;5001125;28;20041;-69
2022/10/31 02:05:47;;;;;;;19.10;7.20;;;;;;;;;;4998741;28;20045;-70
2022/10/31 02:08:32;;;;;;;23.63;8.15;;;;;;;;;;4997734;28;20095;-69
2022/10/31 02:10:58;;;;;;;17.40;8.15;;;;;;;;;;5014061;28;20033;-70
2022/10/31 02:13:24;;;;;;;15.18;8.07;;;;;;;;;;4999681;28;20755;-70
2022/10/31 02:15:55;;;;;;;20.88;9.85;;;;;;;;;;4997189;28;20048;-69
2022/10/31 02:18:21;;;;;;;15.98;9.77;;;;;;;;;;4997950;28;20036;-70
2022/10/31 02:21:09;;;;;;;19.65;9.70;;;;;;;;;;4999581;28;20771;-70
2022/10/31 02:23:53;;;;;;;17.02;10.45;;;;;;;;;;4998694;28;20029;-71
2022/10/31 02:26:43;;;;;;;20.77;11.73;;;;;;;;;;4996464;28;20033;-70
2022/10/31 02:29:09;;;;;;;21.10;12.02;;;;;;;;;;4980296;28;20071;-70
2022/10/31 02:31:40;;;;;;;25.15;12.15;;;;;;;;;;4999782;28;20930;-71
2022/10/31 02:34:17;;;;;;;21.33;11.57;;;;;;;;;;4998707;28;20583;-71
2022/10/31 02:36:58;;;;;;;19.63;10.73;;;;;;;;;;4998057;28;20073;-70
2022/10/31 02:39:29;;;;;;;21.58;13.02;;;;;;;;;;5010824;28;20029;-70
2022/10/31 02:42:09;;;;;;;21.98;13.75;;;;;;;;;;4998309;28;20079;-70
2022/10/31 02:44:52;;;;;;;23.50;12.35;;;;;;;;;;4996794;28;20029;-70
2022/10/31 02:47:22;;;;;;;22.40;12.43;;;;;;;;;;4999209;28;20075;-70
2022/10/31 02:49:49;;;;;;;;;;;;;;;;;;5014049;28;20524;-70
2022/10/31 02:52:19;;;;;;;22.40;11.60;;;;;;;;;;4998394;28;19917;-71
2022/10/31 02:54:45;;;;;;;22.77;11.00;;;;;;;;;;5007025;28;20380;-70
2022/10/31 02:57:10;;;;;;;22.10;10.80;;;;;;;;;;4998326;28;20053;-70
2022/10/31 02:59:39;;;;;;;22.30;11.93;;;;;;;;;;5014049;28;20041;-70
2022/10/31 03:02:20;;;;;;;22.20;12.50;;;;;;;;;;4998708;28;20094;-70
2022/10/31 03:04:58;;;;;;;21.90;12.13;;;;;;;;;;5000453;28;20037;-70
2022/10/31 03:07:32;;;;;;;20.88;11.60;;;;;;;;;;4998557;28;20140;-70
2022/10/31 03:10:16;;;;;;;20.15;12.32;;;;;;;;;;4996400;28;20044;-70
2022/10/31 03:12:56;;;;;;;22.85;12.98;;;;;;;;;;4999550;28;20935;-66
2022/10/31 03:15:27;;;;;;;25.63;13.27;;;;;;;;;;4998861;28;20781;-66
2022/10/31 03:18:11;;;;;;;24.67;14.98;;;;;;;;;;4998570;28;20049;-66
2022/10/31 03:20:39;;;;;;;30.17;14.15;;;;;;;;;;5000211;28;20128;-66
2022/10/31 03:23:06;;;;;;;29.85;13.80;;;;;;;;;;4999387;28;20033;-66
2022/10/31 03:25:32;;;;;;;25.75;15.75;;;;;;;;;;4999372;28;20036;-66
2022/10/31 03:27:58;;;;;;;36.03;16.88;;;;;;;;;;4997984;28;20041;-67
2022/10/31 03:30:23;;;;;;;32.13;18.10;;;;;;;;;;5001377;28;20037;-67
2022/10/31 03:32:52;;;;;;;41.35;24.27;;;;;;;;;;4999808;28;20040;-67
2022/10/31 03:35:20;;;;;;;40.65;26.38;;;;;;;;;;4999004;28;20147;-67
2022/10/31 03:37:46;;;;;;;46.75;29.58;;;;;;;;;;4996591;28;20099;-67
2022/10/31 03:40:12;;;;;;;46.97;31.20;;;;;;;;;;4998420;28;21648;-67
2022/10/31 03:42:41;;;;;;;41.78;28.52;;;;;;;;;;4998386;28;20040;-67
2022/10/31 03:45:10;;;;;;;46.65;29.95;;;;;;;;;;4997800;28;20075;-67
2022/10/31 03:47:36;;;;;;;43.70;26.98;;;;;;;;;;4999690;28;20061;-67
2022/10/31 03:50:01;;;;;;;41.67;24.63;;;;;;;;;;4998762;28;20033;-67
2022/10/31 03:52:40;;;;;;;41.00;25.48;;;;;;;;;;4998932;28;20144;-66
2022/10/31 03:55:10;;;;;;;34.10;20.52;;;;;;;;;;4999761;28;20040;-66
2022/10/31 03:57:40;;;;;;;33.97;18.95;;;;;;;;;;4998515;28;20048;-66
2022/10/31 04:00:07;;;;;;;28.42;16.52;;;;;;;;;;4997967;28;20049;-67
2022/10/31 04:02:33;;;;;;;34.22;18.02;;;;;;;;;;4997468;28;20041;-67
2022/10/31 04:04:59;;;;;;;34.30;18.35;;;;;;;;;;4996326;28;20944;-67
2022/10/31 04:07:27;;;;;;;40.67;21.52;;;;;;;;;;4995401;28;20033;-66
2022/10/31 04:09:56;;;;;;;43.40;21.80;;;;;;;;;;4997843;28;20037;-67
2022/10/31 04:12:23;;;;;;;39.85;21.85;;;;;;;;;;4999474;28;20806;-67
2022/10/31 04:14:50;;;;;;;32.70;21.40;;;;;;;;;;4999460;28;20067;-67
2022/10/31 04:17:17;;;;;;;37.75;21.40;;;;;;;;;;4996598;28;20076;-67
2022/10/31 04:19:45;;;;;;;35.42;22.15;;;;;;;;;;4997656;28;20072;-67
2022/10/31 04:22:11;;;;;;;33.65;22.50;;;;;;;;;;4995929;28;20040;-67
2022/10/31 04:24:38;;;;;;;32.45;21.92;;;;;;;;;;4995346;28;20742;-67
2022/10/31 04:27:04;;;;;;;32.67;21.50;;;;;;;;;;4998155;28;20077;-66
2022/10/31 04:29:31;;;;;;;39.05;23.20;;;;;;;;;;4997670;28;20039;-66
2022/10/31 04:31:56;;;;;;;39.80;23.38;;;;;;;;;;4998568;28;20042;-66
2022/10/31 04:34:22;;;;;;;35.78;22.63;;;;;;;;;;4996144;28;20167;-66
2022/10/31 04:36:47;;;;;;;33.08;21.92;;;;;;;;;;4998330;28;20083;-66
2022/10/31 04:39:13;;;;;;;39.67;22.83;;;;;;;;;;4995706;28;20137;-67
2022/10/31 04:41:38;;;;;;;40.53;24.15;;;;;;;;;;4997408;28;20061;-67
2022/10/31 04:44:05;;;;;;;34.88;22.80;;;;;;;;;;5000117;28;20033;-67
2022/10/31 04:46:31;;;;;;;42.05;28.80;;;;;;;;;;4998613;28;20040;-66
2022/10/31 04:48:56;;;;;;;56.25;38.88;;;;;;;;;;4983652;28;20152;-67
2022/10/31 04:51:22;;;;;;;75.28;62.60;;;;;;;;;;4997175;28;20143;-66
2022/10/31 04:53:49;;;;;;;83.50;70.82;;;;;;;;;;4997281;28;20083;-67
2022/10/31 04:56:20;;;;;;;85.45;74.60;;;;;;;;;;4999476;28;20045;-67
2022/10/31 04:58:45;;;;;;;90.22;77.40;;;;;;;;;;4998884;28;20063;-67
2022/10/31 05:01:10;;;;;;;89.32;79.90;;;;;;;;;;4997896;28;20975;-67
2022/10/31 05:03:35;;;;;;;93.80;82.15;;;;;;;;;;5000398;28;20140;-67
2022/10/31 05:06:01;;;;;;;74.38;62.88;;;;;;;;;;5001447;28;20045;-67
2022/10/31 05:08:26;;;;;;;55.13;40.95;;;;;;;;;;4997217;28;20038;-67
2022/10/31 05:10:54;;;;;;;50.75;32.25;;;;;;;;;;4999950;28;20041;-67
2022/10/31 05:13:19;;;;;;;48.28;27.90;;;;;;;;;;4997673;28;21082;-67
2022/10/31 05:15:45;;;;;;;42.85;27.10;;;;;;;;;;4998348;28;20036;-67
2022/10/31 05:18:10;;;;;;;40.83;27.17;;;;;;;;;;4982845;28;20262;-67
2022/10/31 05:20:35;;;;;;;40.33;27.70;;;;;;;;;;4998636;28;20059;-69
2022/10/31 05:23:01;;;;;;;40.50;28.85;;;;;;;;;;4997069;28;20057;-67
2022/10/31 05:25:28;;;;;;;45.90;32.45;;;;;;;;;;4997045;28;20150;-67
2022/10/31 05:27:54;;;;;;;46.30;32.55;;;;;;;;;;5001544;28;20033;-67
2022/10/31 05:30:21;;;;;;;47.08;33.30;;;;;;;;;;5000793;28;20040;-67
2022/10/31 05:32:49;;;;;;;42.67;31.80;;;;;;;;;;4998180;28;20108;-66
2022/10/31 05:35:25;;;;;;;45.65;32.88;;;;;;;;;;4997923;28;20034;-67
2022/10/31 05:37:51;;;;;;;46.10;33.17;;;;;;;;;;4996958;28;20045;-67
2022/10/31 05:40:20;;;;;;;46.28;32.88;;;;;;;;;;4996263;28;20975;-67
2022/10/31 05:42:46;;;;;;;45.15;32.65;;;;;;;;;;4998508;28;20041;-67
2022/10/31 05:45:15;;;;;;;48.83;33.35;;;;;;;;;;4995914;28;21090;-67
2022/10/31 05:47:41;;;;;;;45.75;32.55;;;;;;;;;;4998228;28;20886;-67
2022/10/31 05:50:07;;;;;;;46.05;32.17;;;;;;;;;;4995784;28;20033;-67
2022/10/31 05:52:32;;;;;;;51.08;34.60;;;;;;;;;;4998278;28;20075;-67
2022/10/31 05:54:58;;;;;;;52.55;34.80;;;;;;;;;;5002854;28;20033;-67
2022/10/31 05:57:23;;;;;;;56.78;37.78;;;;;;;;;;5003545;28;20057;-67
2022/10/31 05:59:52;;;;;;;56.28;38.03;;;;;;;;;;5016150;28;20049;-67
2022/10/31 06:02:18;;;;;;;56.67;39.85;;;;;;;;;;4987839;28;20380;-66
2022/10/31 06:04:43;;;;;;;62.78;40.40;;;;;;;;;;4998890;28;20108;-67
2022/10/31 06:07:11;;;;;;;56.42;38.67;;;;;;;;;;5000908;28;20040;-66
2022/10/31 06:09:36;;;;;;;57.22;37.85;;;;;;;;;;4999476;28;20041;-66
2022/10/31 06:12:02;;;;;;;57.70;38.60;;;;;;;;;;5004255;28;20037;-66
2022/10/31 06:14:27;;;;;;;59.25;38.78;;;;;;;;;;5001196;28;20983;-66
2022/10/31 06:16:54;;;;;;;61.42;40.10;;;;;;;;;;5001442;28;20041;-66
2022/10/31 06:19:19;;;;;;;59.33;39.25;;;;;;;;;;4998803;28;20037;-66
2022/10/31 06:21:44;;;;;;;63.45;42.58;;;;;;;;;;4999593;28;20071;-66
2022/10/31 06:24:09;;;;;;;65.03;43.30;;;;;;;;;;4999426;28;20134;-68
2022/10/31 06:26:35;;;;;;;63.42;43.10;;;;;;;;;;5002829;28;20124;-66
2022/10/31 06:29:00;;;;;;;73.97;44.88;;;;;;;;;;5001217;28;22475;-67
2022/10/31 06:31:25;;;;;;;68.00;44.55;;;;;;;;;;5001323;28;20079;-66
2022/10/31 06:33:53;;;;;;;73.07;46.78;;;;;;;;;;5002249;28;20094;-67
2022/10/31 06:36:19;;;;;;;70.72;45.85;;;;;;;;;;5004657;28;20049;-67
2022/10/31 06:38:47;;;;;;;75.20;46.75;;;;;;;;;;5000757;28;20048;-66
2022/10/31 06:41:14;;;;;;;70.43;45.47;;;;;;;;;;4998526;28;20041;-66
2022/10/31 06:43:39;;;;;;;73.40;45.55;;;;;;;;;;4998640;28;20592;-66
2022/10/31 06:46:05;;;;;;;78.45;49.90;;;;;;;;;;4999531;28;20076;-66
2022/10/31 06:48:30;;;;;;;78.35;48.85;;;;;;;;;;4998832;28;20072;-66
2022/10/31 06:50:59;;;;;;;83.03;51.40;;;;;;;;;;4999780;28;20102;-66
2022/10/31 06:53:29;;;;;;;78.55;50.95;;;;;;;;;;5001294;28;20032;-67
2022/10/31 06:55:55;;;;;;;77.10;49.00;;;;;;;;;;4997514;28;20041;-67
2022/10/31 06:58:20;;;;;;;81.97;48.67;;;;;;;;;;4999174;28;20137;-66
2022/10/31 07:00:47;;;;;;;82.63;51.92;;;;;;;;;;4997552;28;20045;-66
2022/10/31 07:03:12;;;;;;;82.22;53.22;;;;;;;;;;4999795;28;20040;-66
2022/10/31 07:05:38;;;;;;;83.53;51.70;;;;;;;;;;4999871;28;20203;-67
2022/10/31 07:08:05;;;;;;;85.38;53.05;;;;;;;;;;5001555;28;21228;-67
2022/10/31 07:10:32;;;;;;;83.32;52.00;;;;;;;;;;4984672;28;20561;-67
2022/10/31 07:12:58;;;;;;;85.28;48.80;;;;;;;;;;5000364;28;20122;-67
2022/10/31 07:15:24;;;;;;;81.57;48.78;;;;;;;;;;4999697;28;20057;-67
2022/10/31 07:17:49;;;;;;;76.32;48.17;;;;;;;;;;5001204;28;20086;-68
2022/10/31 07:20:15;;;;;;;81.05;48.72;;;;;;;;;;4998694;28;20476;-68
2022/10/31 07:22:40;;;;;;;72.65;46.28;;;;;;;;;;4998538;28;20828;-68
2022/10/31 07:25:06;;;;;;;78.70;46.45;;;;;;;;;;4999571;28;20049;-68
2022/10/31 07:27:38;;;;;;;72.53;46.97;;;;;;;;;;5003478;28;20045;-68
2022/10/31 07:30:04;;;;;;;80.47;48.85;;;;;;;;;;4998673;28;20044;-67
2022/10/31 07:32:44;;;;;;;86.82;51.60;;;;;;;;;;4998304;28;20156;-67
2022/10/31 07:35:11;;;;;;;75.95;47.63;;;;;;;;;;4999988;28;20818;-67
2022/10/31 07:37:38;;;;;;;76.00;47.42;;;;;;;;;;5002447;28;23367;-68
2022/10/31 07:40:04;;;;;;;74.85;45.42;;;;;;;;;;4997288;28;20033;-68
2022/10/31 07:42:34;;;;;;;71.10;45.78;;;;;;;;;;4996754;28;20123;-66
2022/10/31 07:44:59;;;;;;;74.63;47.53;;;;;;;;;;4999283;28;20886;-68
2022/10/31 07:47:25;;;;;;;66.15;38.90;;;;;;;;;;4998850;28;20040;-68
2022/10/31 07:49:50;;;;;;;61.80;38.83;;;;;;;;;;4996351;28;20044;-68
2022/10/31 07:52:16;;;;;;;69.90;40.97;;;;;;;;;;4998168;28;22204;-68
2022/10/31 07:54:41;;;;;;;81.50;47.00;;;;;;;;;;4999786;28;20036;-68
2022/10/31 07:57:06;;;;;;;69.97;47.55;;;;;;;;;;4999106;28;20045;-68
2022/10/31 07:59:31;;;;;;;68.55;45.33;;;;;;;;;;4996354;28;20527;-66
2022/10/31 08:01:57;;;;;;;68.65;45.67;;;;;;;;;;4996907;28;20033;-68
2022/10/31 08:04:24;;;;;;;61.65;43.78;;;;;;;;;;4999693;28;20192;-68
2022/10/31 08:06:50;;;;;;;64.82;42.13;;;;;;;;;;4996495;28;20404;-68
2022/10/31 08:09:15;;;;;;;65.97;42.45;;;;;;;;;;4995892;28;20034;-68
2022/10/31 08:11:40;;;;;;;56.95;38.00;;;;;;;;;;4994814;28;20043;-66
2022/10/31 08:14:05;;;;;;;46.90;34.35;;;;;;;;;;4996252;28;20037;-66
2022/10/31 08:16:31;;;;;;;50.75;35.88;;;;;;;;;;4995675;28;20485;-66
2022/10/31 08:18:56;;;;;;;47.20;33.13;;;;;;;;;;4993988;28;20232;-66
2022/10/31 08:21:22;;;;;;;50.05;34.97;;;;;;;;;;4994932;28;20040;-66
2022/10/31 08:23:53;;;;;;;50.95;36.33;;;;;;;;;;4995765;28;20861;-66
2022/10/31 08:26:18;;;;;;;49.38;34.38;;;;;;;;;;4999674;28;20053;-67
2022/10/31 08:28:43;;;;;;;49.95;35.42;;;;;;;;;;4994228;28;20064;-66
2022/10/31 08:31:09;;;;;;;45.40;32.80;;;;;;;;;;4993672;28;20438;-66
2022/10/31 08:33:35;;;;;;;45.85;32.35;;;;;;;;;;4995592;28;20040;-66
2022/10/31 08:36:00;;;;;;;45.40;32.53;;;;;;;;;;4993846;28;20036;-66
2022/10/31 08:38:25;;;;;;;45.53;32.03;;;;;;;;;;4999758;28;20037;-67
2022/10/31 08:40:51;;;;;;;47.80;33.13;;;;;;;;;;4995716;28;20714;-67
2022/10/31 08:43:17;;;;;;;50.55;32.97;;;;;;;;;;4999160;28;20040;-67
2022/10/31 08:45:43;;;;;;;48.17;32.30;;;;;;;;;;4998462;28;20045;-67
2022/10/31 08:48:14;;;;;;;44.35;31.80;;;;;;;;;;4997492;28;20086;-71
2022/10/31 08:50:40;;;;;;;46.28;32.22;;;;;;;;;;4998129;28;20029;-69
2022/10/31 08:53:07;;;;;;;41.63;31.65;;;;;;;;;;4998089;28;20518;-70
2022/10/31 08:55:34;;;;;;;47.13;32.90;;;;;;;;;;4997302;28;20051;-70
2022/10/31 08:57:59;;;;;;;47.85;32.47;;;;;;;;;;4995145;28;20243;-69
2022/10/31 09:00:25;;;;;;;47.97;32.00;;;;;;;;;;4991931;28;20356;-70
2022/10/31 09:02:58;;;;;;;47.20;30.55;;;;;;;;;;4996656;28;20528;-70
2022/10/31 09:05:25;;;;;;;48.08;30.88;;;;;;;;;;4992815;28;20025;-71
2022/10/31 09:07:51;;;;;;;40.65;27.48;;;;;;;;;;4995342;28;22089;-70
2022/10/31 09:10:16;;;;;;;38.92;26.10;;;;;;;;;;4993592;28;20590;-71
2022/10/31 09:12:41;;;;;;;42.17;28.25;;;;;;;;;;4995085;28;20037;-70
2022/10/31 09:15:07;;;;;;;46.75;30.60;;;;;;;;;;4978905;28;20056;-71
2022/10/31 09:17:35;;;;;;;51.03;28.05;;;;;;;;;;4995313;28;20190;-71
2022/10/31 09:20:00;;;;;;;46.65;28.65;;;;;;;;;;4995726;28;20052;-70
2022/10/31 09:22:25;;;;;;;43.47;26.10;;;;;;;;;;4995782;28;20112;-70
2022/10/31 09:24:51;;;;;;;42.60;25.98;;;;;;;;;;4994133;28;20241;-70
2022/10/31 09:27:19;;;;;;;37.05;24.80;;;;;;;;;;4990414;28;20887;-68
2022/10/31 09:29:44;;;;;;;40.53;24.80;;;;;;;;;;5000301;28;20037;-70
2022/10/31 09:32:13;;;;;;;36.42;23.63;;;;;;;;;;4999301;28;20490;-69
2022/10/31 09:34:38;;;;;;;38.08;22.10;;;;;;;;;;5000064;28;20127;-70
2022/10/31 09:37:03;;;;;;;36.83;23.00;;;;;;;;;;4998297;28;20602;-70
2022/10/31 09:39:28;;;;;;;36.67;23.60;;;;;;;;;;5000593;28;20148;-70
2022/10/31 09:42:05;;;;;;;38.10;21.67;;;;;;;;;;4999066;28;20151;-70
2022/10/31 09:44:36;;;;;;;32.38;21.02;;;;;;;;;;4999427;28;20049;-70
2022/10/31 09:47:04;;;;;;;34.50;19.75;;;;;;;;;;4995683;28;20349;-70
2022/10/31 09:49:33;;;;;;;36.42;21.60;;;;;;;;;;4997811;28;20166;-69
2022/10/31 09:52:03;;;;;;;33.72;19.73;;;;;;;;;;4997826;28;20619;-70
2022/10/31 09:54:34;;;;;;;36.60;21.10;;;;;;;;;;4998815;28;20432;-69
2022/10/31 09:57:00;;;;;;;31.40;18.63;;;;;;;;;;4998307;28;20045;-69
2022/10/31 09:59:30;;;;;;;31.83;17.60;;;;;;;;;;4996376;28;20642;-70
2022/10/31 10:02:10;;;;;;;33.00;18.42;;;;;;;;;;4999545;28;20035;-70
2022/10/31 10:04:39;;;;;;;26.80;16.00;;;;;;;;;;4996859;28;20682;-70
2022/10/31 10:07:27;;;;;;;32.83;17.20;;;;;;;;;;4998617;28;20147;-70
2022/10/31 10:09:55;;;;;;;29.25;17.75;;;;;;;;;;4990772;28;20060;-70
2022/10/31 10:12:33;;;;;;;31.15;16.98;;;;;;;;;;4998635;28;20033;-70
2022/10/31 10:15:13;;;;;;;25.90;15.55;;;;;;;;;;4998158;28;20252;-70
2022/10/31 10:17:41;;;;;;;25.35;15.38;;;;;;;;;;4997782;28;20147;-70
2022/10/31 10:20:23;;;;;;;26.65;14.82;;;;;;;;;;4995456;28;20301;-69
2022/10/31 10:22:50;;;;;;;23.95;14.68;;;;;;;;;;4996945;28;20041;-70
2022/10/31 10:25:20;;;;;;;23.83;14.68;;;;;;;;;;4998516;28;20497;-70
2022/10/31 10:28:05;;;;;;;25.17;14.43;;;;;;;;;;4996762;28;20379;-69
2022/10/31 10:30:37;;;;;;;27.10;15.73;;;;;;;;;;4993628;28;20033;-70
2022/10/31 10:33:09;;;;;;;32.55;17.88;;;;;;;;;;4977817;28;20038;-70
2022/10/31 10:35:36;;;;;;;30.15;18.15;;;;;;;;;;4978469;28;20384;-70
2022/10/31 10:38:21;;;;;;;31.88;18.88;;;;;;;;;;4979190;28;20053;-68
2022/10/31 10:40:47;;;;;;;24.42;15.93;;;;;;;;;;4994548;28;20029;-70
2022/10/31 10:43:33;;;;;;;25.45;15.60;;;;;;;;;;4998177;28;20118;-69
2022/10/31 10:49:23;;;;;;;25.02;14.55;;;;;;;;;;4997356;28;20494;-70
2022/10/31 10:51:59;;;;;;;21.42;13.73;;;;;;;;;;4996979;28;20056;-70
2022/10/31 10:54:37;;;;;;;20.30;13.15;;;;;;;;;;4996846;28;20033;-69
2022/10/31 10:57:24;;;;;;;28.02;15.10;;;;;;;;;;4973267;28;20084;-70
2022/10/31 10:59:50;;;;;;;26.75;16.05;;;;;;;;;;4998992;28;20045;-70
2022/10/31 11:02:20;;;;;;;29.27;16.15;;;;;;;;;;4999899;28;21020;-70
2022/10/31 11:04:50;;;;;;;26.55;14.60;;;;;;;;;;4987436;28;20036;-70
2022/10/31 11:07:16;;;;;;;25.17;14.95;;;;;;;;;;4998751;28;20128;-70
2022/10/31 11:09:41;;;;;;;27.17;16.27;;;;;;;;;;5000647;28;21819;-70
2022/10/31 11:12:08;;;;;;;26.85;16.88;;;;;;;;;;4996723;28;20071;-68
2022/10/31 11:14:43;;;;;;;25.33;17.58;;;;;;;;;;5000996;28;20041;-70
2022/10/31 11:17:15;;;;;;;32.97;18.80;;;;;;;;;;4999370;28;20045;-70
2022/10/31 11:19:45;;;;;;;29.08;17.65;;;;;;;;;;4998833;28;20071;-70
2022/10/31 11:22:19;;;;;;;32.15;20.00;;;;;;;;;;4999581;28;20151;-69
2022/10/31 11:24:44;;;;;;;27.20;18.13;;;;;;;;;;4998908;28;20814;-69
2022/10/31 11:27:21;;;;;;;23.60;15.95;;;;;;;;;;4999567;28;20144;-70
2022/10/31 11:29:47;;;;;;;31.48;16.98;;;;;;;;;;5000361;28;20029;-70
2022/10/31 11:32:19;;;;;;;23.00;14.90;;;;;;;;;;4999562;28;20048;-70
2022/10/31 11:34:45;;;;;;;20.17;13.35;;;;;;;;;;5000519;28;20044;-68
2022/10/31 11:37:16;;;;;;;23.45;14.07;;;;;;;;;;4995020;28;20080;-70
2022/10/31 11:39:43;;;;;;;20.13;11.63;;;;;;;;;;4999009;28;20071;-70
2022/10/31 11:42:08;;;;;;;22.98;13.45;;;;;;;;;;4998067;28;20048;-68
2022/10/31 11:44:34;;;;;;;22.10;11.85;;;;;;;;;;4997806;28;20960;-69
2022/10/31 11:47:01;;;;;;;19.55;10.32;;;;;;;;;;5000383;28;21467;-70
2022/10/31 11:49:26;;;;;;;19.55;10.63;;;;;;;;;;4997763;28;20112;-69
2022/10/31 11:51:54;;;;;;;18.00;10.40;;;;;;;;;;4998841;28;20644;-69
2022/10/31 11:54:25;;;;;;;19.15;11.45;;;;;;;;;;4999864;28;20037;-70
2022/10/31 11:56:50;;;;;;;20.08;10.93;;;;;;;;;;4997488;28;20646;-69
2022/10/31 11:59:22;;;;;;;17.63;9.18;;;;;;;;;;4999976;28;20136;-69
2022/10/31 12:01:49;;;;;;;21.23;12.32;;;;;;;;;;5003151;28;20644;-70
2022/10/31 12:04:16;;;;;;;22.38;11.57;;;;;;;;;;4998480;28;20039;-68
2022/10/31 12:06:42;;;;;;;24.02;13.05;;;;;;;;;;4999985;28;20885;-70
2022/10/31 12:09:25;;;;;;;25.52;14.73;;;;;;;;;;4998833;28;20047;-70
2022/10/31 12:11:56;;;;;;;22.95;14.23;;;;;;;;;;4997613;28;20454;-72
2022/10/31 12:14:24;;;;;;;23.45;13.57;;;;;;;;;;4997698;28;20060;-68
2022/10/31 12:16:49;;;;;;;24.10;14.10;;;;;;;;;;4999043;28;20056;-68
2022/10/31 12:19:18;;;;;;;26.17;15.80;;;;;;;;;;4999054;28;20030;-67
2022/10/31 12:21:52;;;;;;;26.02;15.00;;;;;;;;;;4996287;28;20146;-68
2022/10/31 12:24:44;;;;;;;22.88;14.05;;;;;;;;;;4999062;28;20045;-68
2022/10/31 12:27:19;;;;;;;23.17;15.48;;;;;;;;;;4999133;28;20037;-70
2022/10/31 12:30:03;;;;;;;24.50;15.30;;;;;;;;;;4997663;28;20037;-70
2022/10/31 12:32:47;;;;;;;21.90;13.38;;;;;;;;;;4995943;28;20037;-72
2022/10/31 12:35:36;;;;;;;23.48;15.07;;;;;;;;;;4996604;28;20048;-70
2022/10/31 12:38:23;;;;;;;24.50;16.20;;;;;;;;;;4995439;28;20128;-71
2022/10/31 12:40:53;;;;;;;24.10;15.63;;;;;;;;;;4996544;28;20056;-71
2022/10/31 12:43:28;;;;;;;24.70;15.93;;;;;;;;;;5008642;28;20038;-70
2022/10/31 12:45:57;;;;;;;24.83;15.23;;;;;;;;;;4996907;28;20041;-70
2022/10/31 12:48:29;;;;;;;26.85;15.77;;;;;;;;;;4998506;28;21243;-69
2022/10/31 12:51:13;;;;;;;23.13;15.20;;;;;;;;;;4997387;28;20791;-70
2022/10/31 12:53:57;;;;;;;28.23;16.27;;;;;;;;;;4998296;28;20036;-69
2022/10/31 12:56:25;;;;;;;31.25;18.08;;;;;;;;;;4996599;28;20501;-70
2022/10/31 12:58:54;;;;;;;31.45;16.70;;;;;;;;;;4998165;28;20072;-70
2022/10/31 13:01:28;;;;;;;25.98;17.05;;;;;;;;;;4998410;28;20033;-68
2022/10/31 13:04:06;;;;;;;26.20;16.27;;;;;;;;;;5002196;28;20091;-71
2022/10/31 13:06:36;;;;;;;34.05;18.70;;;;;;;;;;5000938;28;20048;-70
2022/10/31 13:09:05;;;;;;;34.35;19.00;;;;;;;;;;4999135;28;20992;-70
2022/10/31 13:11:34;;;;;;;28.42;19.40;;;;;;;;;;5002205;28;20187;-68
2022/10/31 13:13:59;;;;;;;33.63;21.00;;;;;;;;;;5001589;28;20021;-69
2022/10/31 13:16:32;;;;;;;31.38;20.23;;;;;;;;;;4999576;28;20057;-71
2022/10/31 13:19:03;;;;;;;38.45;22.02;;;;;;;;;;4996369;28;20148;-70
2022/10/31 13:21:48;;;;;;;39.72;21.50;;;;;;;;;;5001630;28;20033;-71
2022/10/31 13:24:16;;;;;;;32.63;20.77;;;;;;;;;;4993152;28;20033;-70
2022/10/31 13:26:44;;;;;;;32.53;21.40;;;;;;;;;;5001947;28;20059;-70
2022/10/31 13:29:21;;;;;;;37.55;22.20;;;;;;;;;;5000915;28;20022;-71
2022/10/31 13:31:47;;;;;;;37.78;22.55;;;;;;;;;;5002133;28;20110;-70
2022/10/31 13:34:20;;;;;;;35.83;22.38;;;;;;;;;;4999671;28;20034;-70
2022/10/31 13:36:50;;;;;;;32.00;20.52;;;;;;;;;;5001852;28;20033;-71
2022/10/31 13:39:25;;;;;;;37.42;22.25;;;;;;;;;;5002112;28;20822;-71
2022/10/31 13:41:59;;;;;;;35.78;22.05;;;;;;;;;;4999577;28;20079;-69
2022/10/31 13:44:26;;;;;;;33.78;21.85;;;;;;;;;;5000812;28;20622;-69
2022/10/31 13:46:53;;;;;;;35.17;22.15;;;;;;;;;;5000528;28;20065;-69
2022/10/31 13:49:27;;;;;;;35.58;21.30;;;;;;;;;;5001845;28;20041;-69
2022/10/31 13:52:04;;;;;;;37.35;21.58;;;;;;;;;;4996867;28;20539;-69
2022/10/31 13:54:33;;;;;;;37.05;23.48;;;;;;;;;;4998112;28;20037;-69
2022/10/31 13:56:59;;;;;;;33.65;22.85;;;;;;;;;;4998267;28;20037;-68
2022/10/31 13:59:26;;;;;;;33.20;22.80;;;;;;;;;;4997859;28;20331;-70
2022/10/31 14:01:56;;;;;;;40.25;22.83;;;;;;;;;;4998396;28;20123;-68
2022/10/31 14:04:30;;;;;;;37.88;22.50;;;;;;;;;;4999884;28;20771;-70
2022/10/31 14:07:05;;;;;;;32.42;21.40;;;;;;;;;;5001718;28;20028;-70
2022/10/31 14:09:36;;;;;;;36.80;22.90;;;;;;;;;;5001079;28;20040;-69
2022/10/31 14:12:03;;;;;;;37.88;22.92;;;;;;;;;;4998108;28;20040;-69
2022/10/31 14:14:32;;;;;;;32.85;22.00;;;;;;;;;;4995755;28;20040;-69
2022/10/31 14:16:57;;;;;;;34.92;21.98;;;;;;;;;;4996289;28;20126;-69
2022/10/31 14:19:23;;;;;;;35.17;21.98;;;;;;;;;;5012181;28;20299;-69
2022/10/31 14:21:49;;;;;;;39.08;21.80;;;;;;;;;;4996426;28;20045;-69
2022/10/31 14:24:29;;;;;;;37.47;23.73;;;;;;;;;;4982142;28;20197;-70
2022/10/31 14:26:57;;;;;;;38.65;24.23;;;;;;;;;;4997400;28;20091;-70
2022/10/31 14:29:24;;;;;;;41.10;25.17;;;;;;;;;;4996201;28;20057;-70
2022/10/31 14:31:52;;;;;;;36.90;23.92;;;;;;;;;;4997929;28;20130;-70